createdAt,value
2018-11-11T00:01:12.159Z,115.77
2018-11-11T00:03:40.357Z,61.23
2018-11-11T00:06:08.646Z,76.80
2018-11-11T00:08:36.845Z,74.03
2018-11-11T00:11:05.324Z,75.78
2018-11-11T00:13:33.547Z,67.00
2018-11-11T00:16:01.776Z,57.27
2018-11-11T00:18:30.049Z,42.13
2018-11-11T00:20:58.274Z,42.13
2018-11-11T00:23:26.543Z,38.63
2018-11-11T00:25:54.837Z,35.63
2018-11-11T00:28:23.075Z,41.45
2018-11-11T00:30:51.285Z,37.95
2018-11-11T00:33:19.574Z,95.30
2018-11-11T00:35:47.822Z,57.73
2018-11-11T00:38:16.071Z,108.80
2018-11-11T00:40:44.326Z,36.88
2018-11-11T00:43:12.557Z,43.42
2018-11-11T00:45:40.813Z,40.73
2018-11-11T00:48:09.072Z,34.73
2018-11-11T00:50:37.339Z,40.67
2018-11-11T00:53:05.714Z,31.42
2018-11-11T00:55:37.803Z,34.77
2018-11-11T00:58:06.157Z,38.53
2018-11-11T01:00:34.417Z,38.80
2018-11-11T01:03:02.630Z,30.37
2018-11-11T01:05:30.881Z,48.87
2018-11-11T01:07:59.123Z,38.63
2018-11-11T01:10:27.351Z,72.78
2018-11-11T01:12:55.598Z,70.12
2018-11-11T01:15:23.825Z,43.15
2018-11-11T01:17:52.042Z,38.02
2018-11-11T01:20:20.281Z,34.43
2018-11-11T01:22:48.538Z,35.70
2018-11-11T01:25:17.558Z,50.08
2018-11-11T01:27:45.870Z,38.73
2018-11-11T01:30:14.132Z,33.10
2018-11-11T01:32:42.347Z,37.17
2018-11-11T01:35:12.469Z,60.05
2018-11-11T01:37:41.353Z,47.13
2018-11-11T01:40:09.621Z,37.30
2018-11-11T01:42:37.911Z,36.70
2018-11-11T01:45:09.910Z,33.02
2018-11-11T01:47:38.206Z,31.82
2018-11-11T01:50:07.762Z,29.77
2018-11-11T01:52:36.181Z,34.35
2018-11-11T01:55:04.498Z,47.05
2018-11-11T01:57:32.739Z,44.20
2018-11-11T02:00:00.957Z,32.65
2018-11-11T02:02:29.212Z,32.38
2018-11-11T02:04:57.445Z,32.70
2018-11-11T02:07:25.633Z,38.50
2018-11-11T02:09:53.956Z,36.05
2018-11-11T02:12:22.146Z,34.97
2018-11-11T02:14:50.358Z,33.30
2018-11-11T02:17:18.658Z,35.08
2018-11-11T02:19:47.018Z,33.20
2018-11-11T02:22:15.247Z,35.80
2018-11-11T02:24:43.496Z,34.38
2018-11-11T02:27:11.737Z,30.87
2018-11-11T02:29:39.950Z,34.15
2018-11-11T02:32:08.188Z,37.58
2018-11-11T02:34:36.493Z,32.70
2018-11-11T02:37:04.742Z,47.62
2018-11-11T02:39:32.988Z,56.58
2018-11-11T02:42:01.246Z,33.45
2018-11-11T02:44:29.437Z,37.67
2018-11-11T02:46:57.678Z,32.90
2018-11-11T02:49:25.904Z,27.53
2018-11-11T02:51:54.125Z,30.57
2018-11-11T02:54:22.374Z,30.65
2018-11-11T02:56:50.612Z,31.73
2018-11-11T02:59:18.869Z,25.82
2018-11-11T03:01:47.131Z,22.90
2018-11-11T03:04:15.384Z,24.37
2018-11-11T03:06:43.575Z,24.10
2018-11-11T03:09:12.750Z,28.60
2018-11-11T03:11:41.124Z,23.00
2018-11-11T03:14:09.559Z,22.50
2018-11-11T03:16:38.483Z,22.30
2018-11-11T03:19:07.062Z,21.55
2018-11-11T03:21:35.281Z,19.90
2018-11-11T03:24:03.561Z,19.98
2018-11-11T03:26:31.825Z,21.15
2018-11-11T03:29:00.051Z,20.08
2018-11-11T03:31:28.278Z,18.80
2018-11-11T03:33:56.554Z,16.97
2018-11-11T03:36:24.780Z,17.25
2018-11-11T03:38:53.014Z,17.02
2018-11-11T03:41:21.261Z,17.27
2018-11-11T03:43:49.473Z,18.02
2018-11-11T03:46:17.718Z,16.35
2018-11-11T03:48:45.974Z,16.12
2018-11-11T03:51:14.209Z,15.78
2018-11-11T03:53:42.462Z,15.00
2018-11-11T03:56:10.698Z,14.53
2018-11-11T03:58:38.966Z,16.57
2018-11-11T04:01:07.325Z,16.23
2018-11-11T04:03:35.582Z,16.65
2018-11-11T04:06:03.817Z,14.35
2018-11-11T04:08:32.050Z,14.90
2018-11-11T04:11:00.306Z,15.10
2018-11-11T04:13:28.522Z,16.40
2018-11-11T04:15:56.810Z,16.30
2018-11-11T04:18:25.066Z,17.42
2018-11-11T04:20:53.274Z,16.90
2018-11-11T04:23:21.542Z,22.58
2018-11-11T04:25:49.906Z,20.08
2018-11-11T04:28:18.117Z,20.43
2018-11-11T04:30:46.357Z,15.23
2018-11-11T04:33:14.599Z,17.27
2018-11-11T04:35:42.887Z,18.15
2018-11-11T04:38:11.194Z,24.52
2018-11-11T04:40:39.454Z,30.10
2018-11-11T04:43:07.689Z,23.10
2018-11-11T04:45:35.946Z,18.85
2018-11-11T04:48:04.226Z,24.00
2018-11-11T04:50:32.408Z,21.55
2018-11-11T04:53:00.675Z,24.43
2018-11-11T04:55:28.906Z,23.05
2018-11-11T04:57:57.195Z,18.10
2018-11-11T05:00:25.455Z,23.18
2018-11-11T05:02:53.692Z,17.15
2018-11-11T05:05:21.912Z,19.23
2018-11-11T05:07:50.162Z,20.30
2018-11-11T05:10:18.447Z,17.15
2018-11-11T05:12:46.640Z,17.07
2018-11-11T05:15:14.938Z,16.85
2018-11-11T05:17:43.419Z,16.00
2018-11-11T05:20:12.506Z,15.72
2018-11-11T05:22:40.928Z,15.48
2018-11-11T05:25:10.671Z,15.60
2018-11-11T05:27:38.972Z,15.93
2018-11-11T05:30:08.687Z,13.68
2018-11-11T05:32:36.938Z,14.83
2018-11-11T05:35:05.610Z,14.77
2018-11-11T05:37:33.879Z,20.12
2018-11-11T05:40:02.193Z,16.95
2018-11-11T05:42:30.403Z,14.25
2018-11-11T05:44:58.672Z,13.90
2018-11-11T05:47:26.933Z,15.50
2018-11-11T05:49:55.183Z,13.58
2018-11-11T05:52:23.433Z,13.25
2018-11-11T05:54:51.725Z,12.35
2018-11-11T05:57:19.947Z,16.52
2018-11-11T05:59:48.189Z,13.10
2018-11-11T06:02:16.427Z,16.67
2018-11-11T06:04:44.665Z,12.37
2018-11-11T06:07:12.907Z,12.45
2018-11-11T06:09:41.162Z,13.13
2018-11-11T06:12:09.441Z,20.30
2018-11-11T06:14:37.682Z,16.93
2018-11-11T06:17:05.978Z,12.98
2018-11-11T06:19:34.201Z,12.70
2018-11-11T06:22:02.450Z,15.05
2018-11-11T06:24:30.772Z,14.63
2018-11-11T06:26:59.094Z,31.70
2018-11-11T06:29:27.318Z,45.10
2018-11-11T06:31:55.578Z,44.27
2018-11-11T06:34:23.788Z,27.70
2018-11-11T06:36:52.043Z,19.82
2018-11-11T06:39:20.286Z,24.33
2018-11-11T06:41:48.573Z,24.90
2018-11-11T06:44:16.870Z,12.37
2018-11-11T06:46:45.137Z,17.80
2018-11-11T06:49:13.347Z,15.18
2018-11-11T06:51:41.595Z,37.28
2018-11-11T06:54:09.842Z,15.77
2018-11-11T06:56:38.053Z,20.70
2018-11-11T06:59:06.434Z,16.45
2018-11-11T07:01:34.665Z,17.92
2018-11-11T07:04:03.462Z,40.20
2018-11-11T07:06:32.085Z,32.87
2018-11-11T07:09:00.379Z,23.90
2018-11-11T07:11:28.646Z,25.12
2018-11-11T07:13:57.025Z,15.50
2018-11-11T07:16:25.273Z,23.32
2018-11-11T07:18:53.528Z,15.30
2018-11-11T07:21:21.845Z,30.80
2018-11-11T07:23:50.196Z,21.12
2018-11-11T07:26:18.401Z,24.60
2018-11-11T07:28:46.649Z,14.35
2018-11-11T07:31:14.914Z,22.75
2018-11-11T07:33:43.161Z,22.00
2018-11-11T07:36:11.673Z,46.70
2018-11-11T07:38:40.156Z,14.20
2018-11-11T07:41:08.862Z,12.65
2018-11-11T07:43:37.707Z,12.30
2018-11-11T07:46:06.551Z,22.85
2018-11-11T07:48:34.863Z,12.00
2018-11-11T07:51:03.222Z,12.20
2018-11-11T07:53:31.523Z,12.63
2018-11-11T07:55:59.727Z,11.93
2018-11-11T07:58:28.437Z,10.80
2018-11-11T08:00:56.698Z,10.50
2018-11-11T08:03:25.136Z,9.93
2018-11-11T08:05:53.606Z,10.30
2018-11-11T08:08:21.954Z,9.60
2018-11-11T08:11:01.254Z,10.08
2018-11-11T08:13:29.810Z,10.08
2018-11-11T08:15:58.192Z,9.67
2018-11-11T08:18:26.588Z,8.00
2018-11-11T08:20:55.284Z,10.85
2018-11-11T08:23:23.494Z,10.60
2018-11-11T08:25:52.297Z,9.25
2018-11-11T08:28:20.745Z,9.90
2018-11-11T08:30:48.962Z,11.97
2018-11-11T08:33:18.091Z,10.80
2018-11-11T08:35:46.402Z,11.33
2018-11-11T08:38:14.630Z,11.50
2018-11-11T08:40:42.898Z,11.30
2018-11-11T08:43:11.178Z,10.88
2018-11-11T08:45:39.427Z,10.50
2018-11-11T08:48:07.773Z,11.10
2018-11-11T08:50:37.164Z,10.30
2018-11-11T08:53:05.741Z,10.25
2018-11-11T08:55:34.043Z,9.70
2018-11-11T08:58:04.901Z,9.55
2018-11-11T09:00:33.216Z,10.20
2018-11-11T09:03:01.487Z,10.88
2018-11-11T09:05:29.730Z,11.83
2018-11-11T09:07:58.118Z,10.30
2018-11-11T09:10:26.747Z,10.40
2018-11-11T09:12:54.974Z,12.65
2018-11-11T09:15:24.095Z,11.50
2018-11-11T09:17:52.391Z,10.43
2018-11-11T09:20:21.831Z,12.10
2018-11-11T09:22:50.171Z,11.65
2018-11-11T09:25:18.614Z,12.85
2018-11-11T09:27:46.853Z,10.40
2018-11-11T09:30:16.737Z,10.97
2018-11-11T09:32:45.263Z,10.20
2018-11-11T09:35:13.581Z,10.03
2018-11-11T09:37:42.153Z,9.88
2018-11-11T09:40:11.579Z,10.48
2018-11-11T09:42:40.288Z,9.70
2018-11-11T09:45:11.367Z,10.05
2018-11-11T09:47:39.860Z,10.63
2018-11-11T09:50:10.375Z,11.68
2018-11-11T09:52:39.876Z,11.45
2018-11-11T09:55:09.063Z,11.60
2018-11-11T09:57:38.088Z,10.68
2018-11-11T10:00:16.054Z,11.20
2018-11-11T10:02:50.669Z,10.40
2018-11-11T10:06:22.822Z,10.10
2018-11-11T10:09:00.115Z,10.80
2018-11-11T10:11:44.950Z,10.40
2018-11-11T10:14:25.350Z,10.40
2018-11-11T10:17:01.117Z,10.48
2018-11-11T10:19:41.277Z,11.50
2018-11-11T10:22:44.540Z,10.95
2018-11-11T10:25:21.233Z,10.70
2018-11-11T10:27:54.094Z,10.55
2018-11-11T10:30:29.549Z,10.18
2018-11-11T10:33:12.091Z,9.85
2018-11-11T10:35:47.260Z,10.75
2018-11-11T10:38:23.362Z,9.30
2018-11-11T10:41:54.663Z,10.80
2018-11-11T10:44:28.404Z,10.98
2018-11-11T10:47:02.033Z,11.50
2018-11-11T10:49:42.365Z,11.22
2018-11-11T10:52:10.786Z,11.53
2018-11-11T10:54:39.030Z,10.60
2018-11-11T10:57:07.342Z,10.70
2018-11-11T10:59:35.600Z,10.57
2018-11-11T11:02:09.267Z,11.57
2018-11-11T11:04:42.907Z,12.43
2018-11-11T11:07:11.198Z,12.80
2018-11-11T11:09:39.490Z,12.43
2018-11-11T11:12:07.769Z,12.30
2018-11-11T11:14:36.014Z,13.93
2018-11-11T11:17:04.354Z,12.30
2018-11-11T11:19:32.569Z,11.68
2018-11-11T11:22:01.013Z,12.05
2018-11-11T11:24:29.249Z,11.20
2018-11-11T11:26:57.467Z,11.88
2018-11-11T11:29:25.725Z,10.87
2018-11-11T11:31:54.073Z,13.15
2018-11-11T11:34:22.398Z,11.55
2018-11-11T11:36:50.688Z,11.70
2018-11-11T11:39:18.982Z,11.97
2018-11-11T11:41:47.186Z,11.75
2018-11-11T11:44:15.505Z,10.90
2018-11-11T11:46:43.827Z,10.80
2018-11-11T11:49:12.142Z,10.82
2018-11-11T11:51:40.490Z,10.85
2018-11-11T11:54:08.761Z,11.63
2018-11-11T11:56:36.954Z,11.68
2018-11-11T11:59:05.372Z,10.78
2018-11-11T12:01:33.624Z,10.60
2018-11-11T12:04:01.847Z,10.23
2018-11-11T12:06:31.053Z,10.35
2018-11-11T12:08:59.343Z,10.95
2018-11-11T12:11:27.536Z,11.20
2018-11-11T12:13:55.775Z,12.40
2018-11-11T12:16:24.097Z,11.20
2018-11-11T12:18:52.334Z,11.50
2018-11-11T12:21:20.567Z,13.07
2018-11-11T12:23:48.890Z,11.30
2018-11-11T12:26:19.627Z,16.30
2018-11-11T12:28:47.978Z,11.13
2018-11-11T12:31:16.865Z,11.07
2018-11-11T12:33:45.494Z,11.77
2018-11-11T12:36:13.959Z,12.40
2018-11-11T12:38:42.412Z,13.17
2018-11-11T12:41:10.821Z,12.00
2018-11-11T12:43:39.152Z,13.20
2018-11-11T12:46:07.462Z,13.27
2018-11-11T12:48:36.163Z,12.80
2018-11-11T12:51:04.929Z,12.50
2018-11-11T12:53:33.684Z,13.73
2018-11-11T12:56:02.253Z,13.23
2018-11-11T12:58:30.582Z,13.13
2018-11-11T13:00:58.867Z,14.60
2018-11-11T13:03:27.122Z,12.50
2018-11-11T13:05:58.590Z,11.87
2018-11-11T13:08:27.139Z,12.40
2018-11-11T13:10:55.388Z,11.60
2018-11-11T13:13:23.727Z,11.07
2018-11-11T13:15:51.966Z,11.40
2018-11-11T13:18:20.226Z,10.40
2018-11-11T13:20:48.427Z,11.63
2018-11-11T13:23:16.710Z,10.00
2018-11-11T13:25:45.536Z,11.87
2018-11-11T13:28:13.733Z,10.00
2018-11-11T13:30:41.995Z,12.47
2018-11-11T13:33:10.249Z,10.87
2018-11-11T13:35:38.458Z,10.83
2018-11-11T13:38:06.856Z,10.17
2018-11-11T13:40:35.015Z,10.07
2018-11-11T13:43:03.228Z,10.07
2018-11-11T13:45:31.455Z,10.53
2018-11-11T13:47:59.718Z,9.83
2018-11-11T13:50:27.894Z,9.33
2018-11-11T13:52:56.179Z,8.00
2018-11-11T13:55:24.441Z,7.90
2018-11-11T13:57:52.637Z,7.00
2018-11-11T14:00:22.244Z,7.40
2018-11-11T14:02:50.491Z,7.43
2018-11-11T14:05:18.728Z,6.47
2018-11-11T14:07:46.990Z,7.40
2018-11-11T14:10:15.702Z,8.70
2018-11-11T14:12:43.929Z,6.13
2018-11-11T14:15:16.389Z,6.13
2018-11-11T14:17:45.100Z,7.17
2018-11-11T14:20:14.456Z,5.60
2018-11-11T14:22:43.753Z,5.40
2018-11-11T14:25:18.323Z,5.97
2018-11-11T14:27:46.536Z,6.03
2018-11-11T14:30:19.742Z,5.43
2018-11-11T14:32:48.886Z,6.30
2018-11-11T14:35:17.165Z,5.87
2018-11-11T14:37:45.601Z,5.80
2018-11-11T14:40:16.246Z,5.70
2018-11-11T14:42:44.651Z,5.33
2018-11-11T14:45:13.862Z,6.53
2018-11-11T14:47:46.079Z,6.20
2018-11-11T14:50:15.378Z,6.70
2018-11-11T14:52:44.267Z,6.17
2018-11-11T14:55:14.882Z,6.30
2018-11-11T14:57:43.216Z,6.20
2018-11-11T15:00:14.202Z,6.77
2018-11-11T15:02:42.834Z,7.27
2018-11-11T15:05:13.067Z,6.27
2018-11-11T15:07:42.079Z,8.70
2018-11-11T15:10:11.690Z,8.80
2018-11-11T15:12:39.926Z,7.43
2018-11-11T15:15:15.442Z,8.90
2018-11-11T15:17:44.341Z,8.93
2018-11-11T15:20:13.755Z,7.07
2018-11-11T15:22:42.582Z,7.70
2018-11-11T15:25:13.370Z,6.90
2018-11-11T15:27:42.516Z,8.87
2018-11-11T15:30:13.407Z,9.87
2018-11-11T15:32:42.166Z,8.63
2018-11-11T15:35:10.411Z,8.67
2018-11-11T15:37:38.913Z,11.60
2018-11-11T15:40:10.095Z,11.60
2018-11-11T15:42:38.597Z,11.00
2018-11-11T15:45:09.365Z,12.27
2018-11-11T15:47:37.743Z,11.80
2018-11-11T15:50:08.863Z,12.37
2018-11-11T15:52:37.213Z,11.33
2018-11-11T15:55:06.743Z,11.00
2018-11-11T15:57:34.975Z,13.43
2018-11-11T16:00:03.830Z,11.23
2018-11-11T16:02:32.183Z,10.50
2018-11-11T16:05:00.447Z,12.77
2018-11-11T16:07:28.721Z,14.27
2018-11-11T16:09:56.962Z,11.97
2018-11-11T16:12:25.262Z,12.43
2018-11-11T16:14:53.523Z,13.20
2018-11-11T16:17:21.794Z,15.03
2018-11-11T16:19:50.039Z,18.33
2018-11-11T16:22:18.476Z,15.07
2018-11-11T16:24:46.770Z,14.80
2018-11-11T16:27:15.427Z,15.57
2018-11-11T16:29:44.210Z,16.80
2018-11-11T16:32:12.717Z,16.00
2018-11-11T16:34:41.413Z,16.40
2018-11-11T16:37:09.767Z,14.27
2018-11-11T16:39:38.204Z,16.90
2018-11-11T16:42:06.385Z,14.00
2018-11-11T16:44:34.609Z,17.20
2018-11-11T16:47:03.307Z,15.83
2018-11-11T16:49:31.980Z,16.97
2018-11-11T16:52:00.226Z,16.30
2018-11-11T16:54:28.456Z,15.30
2018-11-11T16:56:56.669Z,15.57
2018-11-11T16:59:24.915Z,18.40
2018-11-11T17:01:53.148Z,15.97
2018-11-11T17:04:21.873Z,19.93
2018-11-11T17:06:50.143Z,15.47
2018-11-11T17:09:18.713Z,15.33
2018-11-11T17:11:46.908Z,14.47
2018-11-11T17:14:15.214Z,16.20
2018-11-11T17:16:43.430Z,13.90
2018-11-11T17:19:11.630Z,13.13
2018-11-11T17:21:39.953Z,13.87
2018-11-11T17:24:08.465Z,15.38
2018-11-11T17:26:37.093Z,15.10
2018-11-11T17:29:05.991Z,14.43
2018-11-11T17:31:34.274Z,14.53
2018-11-11T17:34:02.551Z,15.20
2018-11-11T17:36:30.772Z,16.48
2018-11-11T17:38:59.024Z,16.12
2018-11-11T17:41:27.217Z,15.08
2018-11-11T17:43:55.458Z,23.40
2018-11-11T17:46:23.689Z,21.10
2018-11-11T17:48:51.873Z,17.07
2018-11-11T17:51:20.142Z,16.65
2018-11-11T17:53:48.369Z,15.93
2018-11-11T17:56:16.562Z,18.87
2018-11-11T17:58:44.809Z,17.30
2018-11-11T18:01:13.086Z,17.85
2018-11-11T18:03:41.296Z,17.62
2018-11-11T18:06:09.598Z,22.80
2018-11-11T18:08:37.937Z,17.23
2018-11-11T18:11:06.191Z,23.90
2018-11-11T18:13:34.463Z,21.85
2018-11-11T18:16:03.725Z,18.62
2018-11-11T18:18:31.994Z,21.73
2018-11-11T18:21:00.244Z,20.77
2018-11-11T18:23:28.529Z,20.92
2018-11-11T18:25:56.810Z,22.95
2018-11-11T18:28:25.047Z,20.45
2018-11-11T18:30:53.283Z,20.40
2018-11-11T18:33:21.484Z,23.75
2018-11-11T18:35:49.731Z,24.12
2018-11-11T18:38:17.970Z,25.82
2018-11-11T18:40:46.171Z,25.75
2018-11-11T18:43:14.421Z,22.87
2018-11-11T18:45:42.675Z,27.40
2018-11-11T18:48:10.894Z,23.10
2018-11-11T18:50:39.142Z,26.48
2018-11-11T18:53:07.397Z,28.30
2018-11-11T18:55:35.603Z,27.20
2018-11-11T18:58:04.290Z,21.42
2018-11-11T19:00:33.513Z,26.52
2018-11-11T19:03:01.762Z,26.23
2018-11-11T19:05:30.158Z,28.95
2018-11-11T19:08:00.215Z,28.60
2018-11-11T19:10:30.431Z,24.02
2018-11-11T19:13:04.174Z,26.27
2018-11-11T19:15:32.509Z,23.87
2018-11-11T19:18:00.870Z,26.50
2018-11-11T19:20:29.331Z,27.77
2018-11-11T19:22:58.922Z,26.52
2018-11-11T19:25:29.183Z,24.43
2018-11-11T19:27:58.406Z,29.95
2018-11-11T19:30:29.748Z,27.98
2018-11-11T19:32:57.967Z,30.32
2018-11-11T19:35:27.534Z,29.12
2018-11-11T19:37:57.739Z,29.63
2018-11-11T19:40:27.021Z,25.75
2018-11-11T19:42:56.456Z,24.92
2018-11-11T19:45:25.807Z,30.35
2018-11-11T19:47:54.014Z,27.45
2018-11-11T19:50:23.445Z,25.70
2018-11-11T19:52:52.658Z,25.55
2018-11-11T19:55:22.115Z,29.00
2018-11-11T19:57:50.373Z,27.87
2018-11-11T20:00:21.014Z,27.82
2018-11-11T20:02:50.018Z,31.95
2018-11-11T20:05:18.850Z,28.70
2018-11-11T20:07:48.023Z,31.50
2018-11-11T20:10:17.439Z,28.75
2018-11-11T20:12:45.678Z,30.08
2018-11-11T20:15:15.838Z,25.65
2018-11-11T20:17:45.321Z,33.02
2018-11-11T20:20:16.035Z,38.05
2018-11-11T20:22:45.050Z,28.40
2018-11-11T20:25:15.172Z,23.12
2018-11-11T20:27:44.469Z,26.40
2018-11-11T20:30:16.847Z,24.30
2018-11-11T20:32:45.096Z,21.55
2018-11-11T20:35:15.557Z,24.37
2018-11-11T20:37:43.838Z,26.05
2018-11-11T20:40:15.386Z,27.35
2018-11-11T20:42:44.495Z,30.57
2018-11-11T20:45:14.313Z,26.90
2018-11-11T20:47:43.478Z,23.95
2018-11-11T20:50:14.786Z,24.50
2018-11-11T20:52:44.253Z,26.17
2018-11-11T20:55:13.553Z,23.52
2018-11-11T20:57:42.975Z,26.42
2018-11-11T21:00:13.671Z,24.50
2018-11-11T21:02:42.116Z,24.43
2018-11-11T21:05:12.294Z,28.57
2018-11-11T21:07:41.995Z,21.73
2018-11-11T21:10:14.193Z,23.07
2018-11-11T21:12:42.506Z,21.30
2018-11-11T21:15:12.968Z,22.50
2018-11-11T21:17:41.553Z,22.20
2018-11-11T21:20:11.502Z,29.52
2018-11-11T21:22:40.214Z,27.82
2018-11-11T21:25:08.860Z,17.77
2018-11-11T21:27:38.105Z,20.68
2018-11-11T21:30:10.151Z,23.07
2018-11-11T21:32:38.476Z,21.25
2018-11-11T21:35:07.127Z,21.30
2018-11-11T21:37:35.406Z,21.85
2018-11-11T21:40:04.131Z,19.20
2018-11-11T21:42:32.374Z,22.60
2018-11-11T21:45:00.635Z,20.45
2018-11-11T21:47:29.022Z,24.72
2018-11-11T21:49:57.267Z,25.88
2018-11-11T21:52:25.490Z,22.58
2018-11-11T21:54:53.770Z,32.03
2018-11-11T21:57:22.005Z,21.07
2018-11-11T21:59:50.250Z,28.00
2018-11-11T22:02:18.574Z,25.02
2018-11-11T22:04:46.799Z,26.17
2018-11-11T22:07:15.126Z,26.87
2018-11-11T22:09:43.377Z,29.85
2018-11-11T22:12:11.649Z,23.67
2018-11-11T22:14:39.849Z,25.25
2018-11-11T22:17:08.164Z,25.77
2018-11-11T22:19:36.419Z,27.65
2018-11-11T22:22:04.848Z,25.95
2018-11-11T22:24:33.214Z,29.42
2018-11-11T22:27:01.575Z,28.52
2018-11-11T22:29:29.882Z,32.23
2018-11-11T22:31:58.217Z,26.60
2018-11-11T22:34:26.422Z,22.85
2018-11-11T22:36:54.702Z,28.00
2018-11-11T22:39:22.910Z,28.60
2018-11-11T22:41:51.205Z,25.17
2018-11-11T22:44:19.495Z,31.25
2018-11-11T22:46:48.654Z,30.48
2018-11-11T22:49:16.879Z,29.37
2018-11-11T22:51:45.086Z,26.90
2018-11-11T22:54:13.336Z,27.87
2018-11-11T22:56:41.576Z,23.38
2018-11-11T22:59:09.790Z,24.70
2018-11-11T23:01:38.061Z,25.27
2018-11-11T23:04:06.282Z,34.08
2018-11-11T23:06:34.561Z,30.70
2018-11-11T23:09:03.423Z,27.15
2018-11-11T23:11:31.678Z,27.95
2018-11-11T23:13:59.922Z,25.15
2018-11-11T23:16:28.118Z,23.22
2018-11-11T23:18:56.370Z,26.00
2018-11-11T23:21:24.614Z,25.97
2018-11-11T23:23:52.808Z,26.68
2018-11-11T23:26:21.081Z,25.02
2018-11-11T23:28:49.294Z,23.52
2018-11-11T23:31:17.518Z,24.77
2018-11-11T23:33:45.775Z,30.08
2018-11-11T23:36:14.394Z,27.27
2018-11-11T23:38:42.685Z,25.30
2018-11-11T23:41:10.929Z,22.52
2018-11-11T23:43:39.174Z,26.10
2018-11-11T23:46:07.470Z,26.10
2018-11-11T23:48:35.660Z,20.48
2018-11-11T23:51:03.943Z,27.58
2018-11-11T23:53:32.153Z,27.52
2018-11-11T23:56:00.423Z,26.52
2018-11-11T23:58:28.648Z,25.08
